Time;durP1;ratioP1;P1;durP2;ratioP2;P2;SDS_P1;SDS_P2;PMS_P1;PMS_P2;Temp;Humidity;BMP_temperature;BMP_pressure;BME280_temperature;BME280_humidity;BME280_pressure;Samples;Min_cycle;Max_cycle;Signal;HPM_P1;HPM_P2
2023/09/22 00:00:00;;;;;;;0.35;0.10;;;17.80;81.60;;;;;;4965563;28;20589;-63
2023/09/22 00:02:26;;;;;;;0.32;0.20;;;17.80;81.90;;;;;;4970439;28;20550;-62
2023/09/22 00:04:51;;;;;;;0.57;0.20;;;17.80;82.00;;;;;;4973730;28;20068;-63
2023/09/22 00:07:18;;;;;;;1.67;0.20;;;17.70;82.00;;;;;;4973865;28;20042;-63
2023/09/22 00:09:43;;;;;;;1.20;0.20;;;17.80;82.20;;;;;;4976437;28;20122;-63
2023/09/22 00:12:09;;;;;;;0.57;0.10;;;17.70;82.40;;;;;;4973631;28;20294;-63
2023/09/22 00:14:35;;;;;;;0.32;0.10;;;17.70;82.70;;;;;;4972023;28;20085;-63
2023/09/22 00:17:02;;;;;;;0.20;0.15;;;17.70;82.80;;;;;;4976658;28;20048;-63
2023/09/22 00:19:28;;;;;;;1.55;0.20;;;17.70;82.90;;;;;;4971157;28;20465;-62
2023/09/22 00:21:55;;;;;;;0.40;0.20;;;17.70;83.20;;;;;;4972901;28;20127;-63
2023/09/22 00:24:22;;;;;;;0.32;0.20;;;17.60;83.40;;;;;;4971330;28;20444;-63
2023/09/22 00:26:48;;;;;;;2.28;0.20;;;17.60;83.40;;;;;;4976605;28;20491;-63
2023/09/22 00:29:13;;;;;;;0.45;0.20;;;17.60;83.70;;;;;;4971479;28;20045;-63
2023/09/22 00:31:39;;;;;;;0.32;0.17;;;17.60;83.80;;;;;;4972016;28;20491;-63
2023/09/22 00:34:04;;;;;;;0.52;0.20;;;17.60;83.70;;;;;;4972892;28;20411;-63
2023/09/22 00:36:32;;;;;;;0.85;0.43;;;17.60;84.40;;;;;;4972040;28;20059;-63
2023/09/22 00:38:58;;;;;;;0.20;0.20;;;17.60;83.50;;;;;;4971607;28;20035;-63
2023/09/22 00:41:23;;;;;;;0.93;0.20;;;17.60;83.50;;;;;;4966975;28;20049;-63
2023/09/22 00:43:49;;;;;;;0.30;0.28;;;17.60;83.40;;;;;;4958013;28;20030;-63
2023/09/22 00:46:19;;;;;;;1.23;0.20;;;17.50;83.20;;;;;;4971348;28;20465;-63
2023/09/22 00:48:45;;;;;;;0.55;0.20;;;17.50;83.40;;;;;;4969945;28;20047;-63
2023/09/22 00:51:12;;;;;;;1.45;0.20;;;17.50;83.40;;;;;;4974678;28;20501;-62
2023/09/22 00:53:39;;;;;;;0.85;0.22;;;17.50;83.40;;;;;;4973645;28;20316;-63
2023/09/22 00:56:06;;;;;;;0.60;0.20;;;17.50;83.50;;;;;;4973032;28;20035;-63
2023/09/22 00:58:32;;;;;;;0.20;0.20;;;17.50;83.60;;;;;;4974644;28;20630;-63
2023/09/22 01:00:58;;;;;;;0.20;0.20;;;17.50;83.50;;;;;;4969974;28;20118;-63
2023/09/22 01:03:24;;;;;;;1.63;0.40;;;17.40;83.60;;;;;;4972750;28;20031;-63
2023/09/22 01:05:50;;;;;;;0.52;0.20;;;17.40;83.60;;;;;;4972819;28;20038;-63
2023/09/22 01:08:16;;;;;;;0.10;0.10;;;17.40;83.60;;;;;;4973395;28;20051;-63
2023/09/22 01:10:46;;;;;;;0.10;0.10;;;17.40;83.40;;;;;;4968225;28;20117;-63
2023/09/22 01:13:12;;;;;;;0.20;0.20;;;17.40;83.30;;;;;;4975031;28;20035;-63
2023/09/22 01:15:43;;;;;;;0.43;0.30;;;17.30;83.30;;;;;;4974656;28;20093;-63
2023/09/22 01:18:10;;;;;;;0.20;0.20;;;17.30;83.40;;;;;;4963737;28;20039;-63
2023/09/22 01:20:45;;;;;;;1.17;0.17;;;17.30;83.40;;;;;;4970991;28;20594;-63
2023/09/22 01:23:12;;;;;;;0.52;0.30;;;17.30;84.00;;;;;;4974314;28;20034;-63
2023/09/22 01:25:45;;;;;;;0.25;0.20;;;17.20;83.40;;;;;;4974717;28;20077;-63
2023/09/22 01:28:12;;;;;;;1.05;0.20;;;17.20;83.60;;;;;;4970723;28;20057;-63
2023/09/22 01:30:41;;;;;;;0.20;0.20;;;17.20;83.20;;;;;;4968184;28;20462;-63
2023/09/22 01:33:07;;;;;;;0.90;0.20;;;17.20;83.30;;;;;;4970543;28;20045;-63
2023/09/22 01:35:33;;;;;;;1.20;0.38;;;17.10;83.30;;;;;;4972801;28;20049;-63
2023/09/22 01:38:14;;;;;;;1.42;0.25;;;17.10;83.30;;;;;;4973014;28;20291;-63
2023/09/22 01:40:41;;;;;;;0.50;0.20;;;17.10;83.80;;;;;;4970364;28;20035;-62
2023/09/22 01:43:06;;;;;;;0.28;0.25;;;17.10;83.20;;;;;;4973596;28;20030;-63
2023/09/22 01:45:32;;;;;;;0.95;0.40;;;17.10;82.90;;;;;;4972561;28;20049;-63
2023/09/22 01:47:57;;;;;;;0.38;0.30;;;17.00;82.70;;;;;;4971923;28;20035;-63
2023/09/22 01:50:23;;;;;;;0.63;0.30;;;17.00;82.80;;;;;;4973730;28;20054;-63
2023/09/22 01:52:48;;;;;;;0.13;0.13;;;17.00;82.90;;;;;;4949944;28;20166;-63
2023/09/22 01:55:14;;;;;;;0.57;0.30;;;17.00;82.80;;;;;;4953418;28;20576;-63
2023/09/22 01:57:39;;;;;;;0.63;0.40;;;17.00;82.80;;;;;;4971971;28;20405;-63
2023/09/22 02:00:06;;;;;;;0.32;0.20;;;17.00;82.90;;;;;;4973570;28;20035;-63
2023/09/22 02:02:34;;;;;;;0.88;0.35;;;16.90;82.80;;;;;;4972173;28;20518;-62
2023/09/22 02:05:00;;;;;;;0.25;0.20;;;16.90;82.90;;;;;;4973205;28;20042;-63
2023/09/22 02:07:26;;;;;;;0.43;0.22;;;17.00;83.10;;;;;;4977751;28;20089;-63
2023/09/22 02:09:52;;;;;;;0.40;0.30;;;16.90;83.20;;;;;;4973069;28;20526;-63
2023/09/22 02:12:17;;;;;;;0.30;0.20;;;16.90;83.10;;;;;;4969936;28;20051;-62
2023/09/22 02:14:43;;;;;;;0.40;0.30;;;16.90;83.20;;;;;;4971825;28;20050;-63
2023/09/22 02:17:08;;;;;;;0.40;0.30;;;16.90;83.40;;;;;;4975176;28;20380;-63
2023/09/22 02:19:35;;;;;;;0.25;0.25;;;16.90;83.40;;;;;;4972142;28;20050;-63
2023/09/22 02:22:01;;;;;;;1.23;0.30;;;17.00;83.60;;;;;;4970216;28;20085;-62
2023/09/22 02:24:26;;;;;;;0.45;0.40;;;17.00;83.50;;;;;;4973035;28;20043;-63
2023/09/22 02:26:52;;;;;;;0.35;0.30;;;17.00;83.60;;;;;;4968710;28;20034;-63
2023/09/22 02:29:18;;;;;;;0.50;0.43;;;17.00;83.60;;;;;;4974314;28;20045;-63
2023/09/22 02:31:43;;;;;;;0.35;0.30;;;17.00;83.60;;;;;;4971923;28;20035;-63
2023/09/22 02:34:09;;;;;;;0.60;0.50;;;17.00;83.80;;;;;;4967238;28;20041;-63
2023/09/22 02:36:34;;;;;;;1.20;0.40;;;17.00;83.70;;;;;;4971321;28;20035;-62
2023/09/22 02:39:00;;;;;;;2.88;0.30;;;17.00;83.60;;;;;;4972767;28;20074;-62
2023/09/22 02:41:26;;;;;;;0.40;0.20;;;17.10;83.50;;;;;;4969950;28;20516;-62
2023/09/22 02:43:51;;;;;;;0.43;0.40;;;17.00;83.30;;;;;;4968227;28;20133;-62
2023/09/22 02:46:17;;;;;;;0.20;0.20;;;17.10;83.40;;;;;;4973216;28;20059;-63
2023/09/22 02:48:42;;;;;;;0.45;0.28;;;17.00;83.40;;;;;;4972626;28;20039;-63
2023/09/22 02:51:08;;;;;;;0.43;0.38;;;17.00;83.60;;;;;;4971761;28;20518;-63
2023/09/22 02:53:34;;;;;;;0.82;0.40;;;17.10;83.60;;;;;;4958967;28;20114;-62
2023/09/22 02:56:06;;;;;;;0.50;0.38;;;17.10;83.40;;;;;;4953987;28;20027;-63
2023/09/22 02:58:32;;;;;;;0.45;0.30;;;17.10;83.80;;;;;;4945526;28;20575;-62
2023/09/22 03:00:58;;;;;;;0.22;0.22;;;17.00;83.50;;;;;;4957054;28;20066;-63
2023/09/22 03:03:24;;;;;;;0.60;0.30;;;17.00;83.60;;;;;;4973558;28;20050;-62
2023/09/22 03:05:49;;;;;;;2.03;0.50;;;17.00;83.60;;;;;;4971419;28;20034;-63
2023/09/22 03:08:15;;;;;;;0.28;0.22;;;17.00;83.60;;;;;;4967334;28;20100;-63
2023/09/22 03:10:41;;;;;;;0.55;0.35;;;17.00;83.70;;;;;;4969108;28;20043;-63
2023/09/22 03:13:06;;;;;;;0.40;0.40;;;16.90;83.80;;;;;;4969598;28;20041;-63
2023/09/22 03:15:34;;;;;;;0.35;0.30;;;16.90;84.00;;;;;;4972601;28;20042;-63
2023/09/22 03:18:01;;;;;;;0.35;0.25;;;16.90;84.40;;;;;;4972324;28;20514;-63
2023/09/22 03:20:26;;;;;;;0.90;0.30;;;16.80;84.30;;;;;;4967540;28;20042;-62
2023/09/22 03:22:52;;;;;;;0.43;0.30;;;16.90;84.50;;;;;;4971507;28;20512;-63
2023/09/22 03:25:18;;;;;;;0.47;0.30;;;16.80;84.50;;;;;;4969253;28;20031;-63
2023/09/22 03:27:43;;;;;;;0.40;0.35;;;16.80;84.40;;;;;;4972781;28;20475;-64
2023/09/22 03:30:10;;;;;;;0.77;0.40;;;16.80;84.50;;;;;;4975675;28;20514;-64
2023/09/22 03:32:35;;;;;;;0.30;0.30;;;16.70;84.60;;;;;;4974073;28;20589;-63
2023/09/22 03:35:06;;;;;;;0.50;0.30;;;16.70;84.50;;;;;;4974840;28;20039;-63
2023/09/22 03:37:32;;;;;;;0.50;0.40;;;16.70;84.50;;;;;;4974967;28;20388;-63
2023/09/22 03:40:04;;;;;;;0.50;0.32;;;16.70;84.80;;;;;;4974051;28;20097;-63
2023/09/22 03:42:30;;;;;;;1.92;0.57;;;16.70;84.80;;;;;;4973864;28;20038;-63
2023/09/22 03:44:55;;;;;;;0.40;0.30;;;16.70;84.70;;;;;;4976401;28;20058;-63
2023/09/22 03:47:21;;;;;;;0.82;0.40;;;16.70;84.60;;;;;;4976721;28;20066;-63
2023/09/22 03:49:46;;;;;;;1.05;0.43;;;16.70;84.70;;;;;;4976882;28;20031;-63
2023/09/22 03:52:14;;;;;;;0.40;0.40;;;16.70;84.60;;;;;;4975361;28;20046;-63
2023/09/22 03:54:39;;;;;;;0.40;0.25;;;16.70;84.60;;;;;;4975481;28;20443;-63
2023/09/22 03:57:06;;;;;;;0.32;0.20;;;16.70;85.20;;;;;;4974741;28;20039;-63
2023/09/22 03:59:32;;;;;;;0.63;0.30;;;16.70;84.70;;;;;;4974441;28;20030;-62
2023/09/22 04:01:59;;;;;;;1.95;0.32;;;16.70;84.60;;;;;;4975960;28;20045;-63
2023/09/22 04:04:27;;;;;;;0.50;0.30;;;16.70;84.60;;;;;;4975697;28;20071;-63
2023/09/22 04:06:53;;;;;;;1.30;0.40;;;16.70;84.70;;;;;;4975651;28;20119;-63
2023/09/22 04:09:19;;;;;;;0.55;0.30;;;16.70;84.80;;;;;;4976524;28;20129;-63
2023/09/22 04:11:44;;;;;;;0.55;0.25;;;16.70;85.00;;;;;;4973183;28;20555;-63
2023/09/22 04:14:10;;;;;;;0.82;0.30;;;16.60;85.00;;;;;;4975471;28;20027;-64
2023/09/22 04:16:36;;;;;;;1.85;0.32;;;16.70;84.90;;;;;;4973142;28;20031;-63
2023/09/22 04:19:03;;;;;;;0.35;0.20;;;16.60;84.80;;;;;;4974953;28;20050;-63
2023/09/22 04:21:29;;;;;;;0.60;0.30;;;16.60;84.70;;;;;;4973861;28;20046;-62
2023/09/22 04:23:57;;;;;;;0.43;0.30;;;16.60;84.80;;;;;;4974034;28;20035;-63
2023/09/22 04:26:29;;;;;;;0.55;0.30;;;16.60;84.90;;;;;;4971364;28;20418;-63
2023/09/22 04:28:56;;;;;;;0.40;0.30;;;16.60;85.20;;;;;;4962273;28;20035;-62
2023/09/22 04:31:25;;;;;;;0.85;0.40;;;16.60;85.00;;;;;;4946299;28;20050;-62
2023/09/22 04:33:54;;;;;;;0.52;0.30;;;16.50;85.40;;;;;;4948652;28;20559;-64
2023/09/22 04:36:21;;;;;;;0.70;0.30;;;16.50;85.30;;;;;;4952249;28;20039;-63
2023/09/22 04:38:50;;;;;;;0.50;0.40;;;16.60;85.30;;;;;;4969156;28;20122;-62
2023/09/22 04:41:19;;;;;;;1.98;0.45;;;16.50;85.40;;;;;;4972865;28;20041;-62
2023/09/22 04:43:45;;;;;;;0.43;0.32;;;16.50;85.40;;;;;;4969934;28;20039;-63
2023/09/22 04:46:11;;;;;;;0.77;0.30;;;16.50;85.40;;;;;;4970207;28;20043;-63
2023/09/22 04:48:36;;;;;;;0.40;0.40;;;16.50;85.50;;;;;;4971210;28;20042;-62
2023/09/22 04:51:04;;;;;;;1.08;0.45;;;16.50;85.60;;;;;;4974654;28;20035;-63
2023/09/22 04:53:29;;;;;;;0.75;0.30;;;16.50;85.80;;;;;;4973363;28;20057;-62
2023/09/22 04:56:06;;;;;;;1.63;0.40;;;16.40;85.80;;;;;;4974793;28;20034;-63
2023/09/22 04:58:32;;;;;;;1.20;0.50;;;16.40;86.10;;;;;;4974455;28;20125;-63
2023/09/22 05:00:58;;;;;;;1.33;0.40;;;16.40;86.00;;;;;;4976511;28;20118;-63
2023/09/22 05:03:25;;;;;;;0.60;0.40;;;16.40;86.90;;;;;;4976052;28;20038;-62
2023/09/22 05:05:51;;;;;;;0.80;0.38;;;16.30;86.20;;;;;;4963721;28;20038;-62
2023/09/22 05:08:17;;;;;;;0.75;0.40;;;16.30;86.20;;;;;;4956358;28;20066;-63
2023/09/22 05:10:49;;;;;;;1.38;0.40;;;16.40;86.40;;;;;;4968782;28;20066;-63
2023/09/22 05:13:18;;;;;;;0.77;0.60;;;16.30;86.70;;;;;;4974877;28;20047;-63
2023/09/22 05:15:45;;;;;;;0.35;0.30;;;16.30;86.50;;;;;;4972674;28;20046;-63
2023/09/22 05:18:14;;;;;;;0.45;0.32;;;16.30;86.60;;;;;;4972920;28;20046;-62
2023/09/22 05:20:42;;;;;;;1.20;0.57;;;16.30;87.00;;;;;;4973364;28;20453;-63
2023/09/22 05:23:09;;;;;;;1.52;0.38;;;16.30;87.00;;;;;;4975721;28;20035;-63
2023/09/22 05:25:40;;;;;;;0.50;0.45;;;16.30;86.90;;;;;;4974525;28;20038;-63
2023/09/22 05:28:10;;;;;;;1.05;0.40;;;16.40;87.40;;;;;;4974035;28;20550;-63
2023/09/22 05:30:38;;;;;;;0.82;0.30;;;16.30;87.00;;;;;;4972852;28;20130;-63
2023/09/22 05:33:07;;;;;;;0.38;0.38;;;16.40;87.00;;;;;;4973437;28;20076;-63
2023/09/22 05:35:35;;;;;;;0.55;0.40;;;16.30;87.00;;;;;;4972741;28;20140;-63
2023/09/22 05:38:02;;;;;;;0.60;0.47;;;16.30;87.10;;;;;;4974405;28;20042;-63
2023/09/22 05:40:27;;;;;;;1.05;0.60;;;16.30;87.20;;;;;;4973086;28;20090;-64
2023/09/22 05:42:54;;;;;;;1.50;0.52;;;16.30;87.30;;;;;;4969376;28;20109;-63
2023/09/22 05:45:19;;;;;;;0.88;0.45;;;16.30;87.50;;;;;;4973709;28;20491;-63
2023/09/22 05:47:45;;;;;;;0.88;0.50;;;16.30;87.60;;;;;;4973187;28;20038;-63
2023/09/22 05:50:11;;;;;;;0.57;0.57;;;16.30;87.60;;;;;;4958794;28;20062;-63
2023/09/22 05:52:38;;;;;;;1.83;0.50;;;16.20;87.70;;;;;;4955621;28;20039;-63
2023/09/22 05:55:04;;;;;;;2.17;0.60;;;16.30;87.90;;;;;;4973768;28;20053;-63
2023/09/22 05:57:30;;;;;;;1.98;0.77;;;16.20;87.70;;;;;;4973019;28;20279;-63
2023/09/22 05:59:57;;;;;;;1.50;0.60;;;16.20;87.80;;;;;;4969894;28;21991;-62
2023/09/22 06:02:23;;;;;;;1.48;0.70;;;16.20;87.90;;;;;;4973546;28;20062;-64
2023/09/22 06:04:52;;;;;;;0.95;0.65;;;16.20;88.00;;;;;;4970995;28;20042;-63
2023/09/22 06:07:20;;;;;;;2.53;0.73;;;16.20;88.10;;;;;;4972099;28;20138;-63
2023/09/22 06:09:45;;;;;;;4.25;0.65;;;16.20;88.10;;;;;;4967758;28;20045;-63
2023/09/22 06:12:11;;;;;;;2.17;0.88;;;16.20;88.20;;;;;;4972432;28;20047;-63
2023/09/22 06:14:39;;;;;;;3.60;0.80;;;16.20;88.30;;;;;;4972160;28;20426;-63
2023/09/22 06:17:04;;;;;;;2.83;0.90;;;16.30;88.30;;;;;;4974770;28;20470;-63
2023/09/22 06:19:30;;;;;;;4.38;1.20;;;16.30;88.30;;;;;;4972080;28;20039;-63
2023/09/22 06:21:56;;;;;;;3.10;1.20;;;16.20;88.20;;;;;;4974200;28;20042;-61
2023/09/22 06:24:22;;;;;;;4.20;0.90;;;16.30;88.30;;;;;;4974659;28;20113;-64
2023/09/22 06:26:47;;;;;;;2.85;0.90;;;16.10;88.10;;;;;;4974178;28;20126;-63
2023/09/22 06:29:13;;;;;;;1.45;0.80;;;16.30;88.30;;;;;;4974321;28;20042;-63
2023/09/22 06:31:38;;;;;;;5.78;1.05;;;16.30;88.30;;;;;;4973134;28;20465;-62
2023/09/22 06:34:07;;;;;;;2.88;0.80;;;16.30;88.40;;;;;;4973076;28;20042;-63
2023/09/22 06:36:32;;;;;;;3.00;0.77;;;16.30;88.40;;;;;;4972816;28;20031;-62
2023/09/22 06:38:58;;;;;;;1.67;0.60;;;16.30;88.30;;;;;;4973237;28;20517;-63
2023/09/22 06:41:23;;;;;;;1.77;0.70;;;16.30;88.30;;;;;;4972568;28;20064;-64
2023/09/22 06:43:49;;;;;;;0.80;0.60;;;16.30;88.30;;;;;;4969694;28;20704;-64
2023/09/22 06:46:16;;;;;;;0.68;0.60;;;16.40;88.50;;;;;;4969949;28;20125;-63
2023/09/22 06:48:41;;;;;;;2.47;0.60;;;16.40;88.60;;;;;;4967607;28;20046;-63
2023/09/22 06:51:14;;;;;;;1.85;0.77;;;16.40;88.60;;;;;;4950542;28;20043;-63
2023/09/22 06:53:40;;;;;;;1.02;0.52;;;16.40;88.80;;;;;;4962089;28;20363;-64
2023/09/22 06:56:08;;;;;;;0.73;0.60;;;16.40;88.50;;;;;;4971713;28;20034;-63
2023/09/22 06:58:37;;;;;;;0.40;0.40;;;16.40;88.60;;;;;;4970066;28;20133;-64
2023/09/22 07:01:16;;;;;;;0.80;0.60;;;16.40;88.60;;;;;;4973726;28;20402;-63
2023/09/22 07:03:46;;;;;;;0.38;0.38;;;16.50;89.10;;;;;;4969015;28;20039;-63
2023/09/22 07:06:14;;;;;;;0.55;0.47;;;16.40;88.50;;;;;;4972409;28;20039;-62
2023/09/22 07:08:42;;;;;;;0.38;0.38;;;16.40;88.50;;;;;;4969309;28;20081;-63
2023/09/22 07:11:10;;;;;;;2.33;0.57;;;16.40;88.60;;;;;;4968732;28;20058;-64
2023/09/22 07:13:37;;;;;;;0.70;0.40;;;16.40;88.60;;;;;;4969522;28;20100;-64
2023/09/22 07:16:02;;;;;;;1.02;0.50;;;16.40;88.60;;;;;;4969079;28;20045;-63
2023/09/22 07:18:29;;;;;;;1.08;0.63;;;16.50;88.70;;;;;;4969309;28;20038;-62
2023/09/22 07:20:55;;;;;;;1.65;0.50;;;16.50;88.50;;;;;;4970949;28;20562;-63
2023/09/22 07:23:21;;;;;;;1.58;0.90;;;16.50;88.60;;;;;;4969876;28;20066;-63
2023/09/22 07:26:08;;;;;;;1.85;0.93;;;16.50;89.00;;;;;;4970449;28;20030;-63
2023/09/22 07:28:34;;;;;;;3.65;0.90;;;16.50;89.20;;;;;;4968817;28;20747;-62
2023/09/22 07:31:18;;;;;;;1.20;0.70;;;16.50;88.50;;;;;;4972289;28;20041;-63
2023/09/22 07:33:44;;;;;;;2.55;0.77;;;16.50;88.90;;;;;;4970431;28;20041;-63
2023/09/22 07:36:11;;;;;;;1.13;0.60;;;16.60;88.50;;;;;;4971328;28;20039;-63
2023/09/22 07:38:37;;;;;;;1.20;0.60;;;16.60;88.60;;;;;;4967537;28;20062;-63
2023/09/22 07:41:04;;;;;;;0.95;0.60;;;16.60;88.50;;;;;;4969720;28;20502;-63
2023/09/22 07:43:30;;;;;;;0.70;0.43;;;16.60;88.30;;;;;;4970539;28;20130;-62
2023/09/22 07:46:00;;;;;;;2.22;0.70;;;16.60;88.30;;;;;;4970801;28;20193;-63
2023/09/22 07:48:27;;;;;;;0.80;0.50;;;16.60;88.50;;;;;;4970489;28;20039;-63
2023/09/22 07:50:53;;;;;;;0.88;0.50;;;16.60;88.30;;;;;;4969398;28;20035;-63
2023/09/22 07:53:20;;;;;;;0.60;0.32;;;16.60;88.30;;;;;;4971436;28;20053;-63
2023/09/22 07:55:47;;;;;;;0.70;0.30;;;16.60;88.30;;;;;;4971918;28;20046;-63
2023/09/22 07:58:13;;;;;;;1.35;0.50;;;16.60;89.30;;;;;;4969586;28;20101;-63
2023/09/22 08:00:42;;;;;;;3.03;0.47;;;16.60;88.40;;;;;;4967517;28;20039;-63
2023/09/22 08:03:09;;;;;;;2.42;0.50;;;16.60;88.30;;;;;;4970104;28;20073;-63
2023/09/22 08:05:35;;;;;;;0.77;0.40;;;16.60;88.30;;;;;;4971314;28;20046;-63
2023/09/22 08:08:01;;;;;;;1.17;0.38;;;16.60;88.30;;;;;;4970986;28;20407;-63
2023/09/22 08:10:28;;;;;;;0.55;0.38;;;16.60;88.30;;;;;;4968490;28;20043;-63
2023/09/22 08:12:54;;;;;;;0.60;0.40;;;16.60;88.40;;;;;;4974306;28;20126;-63
2023/09/22 08:15:21;;;;;;;1.08;0.68;;;16.60;88.60;;;;;;4974257;28;20114;-63
2023/09/22 08:17:47;;;;;;;0.90;0.50;;;16.60;88.50;;;;;;4973853;28;20059;-63
2023/09/22 08:20:13;;;;;;;0.73;0.30;;;16.70;88.50;;;;;;4973211;28;20081;-63
2023/09/22 08:22:42;;;;;;;0.85;0.28;;;16.70;88.80;;;;;;4973016;28;20042;-63
2023/09/22 08:25:09;;;;;;;1.05;0.40;;;16.70;88.60;;;;;;4973002;28;20092;-63
2023/09/22 08:27:36;;;;;;;2.63;0.40;;;16.70;88.50;;;;;;4973644;28;20042;-63
2023/09/22 08:30:10;;;;;;;4.22;0.30;;;16.70;89.00;;;;;;4974507;28;20047;-63
2023/09/22 08:32:37;;;;;;;0.77;0.30;;;16.70;88.60;;;;;;4969787;28;20091;-62
2023/09/22 08:35:05;;;;;;;0.20;0.20;;;16.70;88.30;;;;;;4973360;28;20410;-63
2023/09/22 08:37:32;;;;;;;0.95;0.30;;;16.70;88.50;;;;;;4974594;28;20446;-63
2023/09/22 08:39:58;;;;;;;1.65;0.35;;;16.60;88.40;;;;;;4975127;28;20039;-63
2023/09/22 08:42:24;;;;;;;1.00;0.40;;;16.60;88.30;;;;;;4977414;28;20053;-62
2023/09/22 08:44:50;;;;;;;0.95;0.40;;;16.60;88.50;;;;;;4971015;28;20043;-62
2023/09/22 08:47:18;;;;;;;0.75;0.50;;;16.60;88.80;;;;;;4957524;28;20570;-63
2023/09/22 08:49:43;;;;;;;0.55;0.52;;;16.60;89.00;;;;;;4966248;28;20038;-63
2023/09/22 08:52:09;;;;;;;0.43;0.32;;;16.60;88.80;;;;;;4975000;28;20042;-64
2023/09/22 08:54:35;;;;;;;1.88;0.30;;;16.60;88.50;;;;;;4973015;28;20571;-62
2023/09/22 08:57:02;;;;;;;0.35;0.25;;;16.50;88.20;;;;;;4973534;28;20050;-63
2023/09/22 08:59:27;;;;;;;0.45;0.20;;;16.50;88.30;;;;;;4971967;28;20043;-63
2023/09/22 09:01:53;;;;;;;0.30;0.30;;;16.40;88.10;;;;;;4976956;28;20388;-63
2023/09/22 09:04:39;;;;;;;0.88;0.30;;;16.40;88.00;;;;;;4978160;28;20527;-61
2023/09/22 09:07:05;;;;;;;0.95;0.30;;;16.40;88.70;;;;;;4954405;28;20077;-63
2023/09/22 09:09:44;;;;;;;0.45;0.30;;;16.40;88.30;;;;;;4963774;28;20096;-63
2023/09/22 09:12:13;;;;;;;2.38;0.30;;;16.40;88.80;;;;;;4970441;28;20058;-63
2023/09/22 09:14:43;;;;;;;0.65;0.20;;;16.40;88.10;;;;;;4956816;28;20031;-62
2023/09/22 09:17:26;;;;;;;0.77;0.40;;;16.30;88.10;;;;;;4961833;28;20073;-63
2023/09/22 09:19:56;;;;;;;1.92;0.35;;;16.30;88.50;;;;;;4974524;28;20037;-63
2023/09/22 09:22:30;;;;;;;0.52;0.40;;;16.20;88.10;;;;;;4974686;28;20410;-63
2023/09/22 09:24:59;;;;;;;0.95;0.30;;;16.20;88.00;;;;;;4960065;28;20532;-63
2023/09/22 09:27:26;;;;;;;2.15;0.30;;;16.10;88.10;;;;;;4975629;28;21519;-62
2023/09/22 09:29:53;;;;;;;1.27;0.38;;;16.10;88.00;;;;;;4973557;28;20089;-62
2023/09/22 09:32:22;;;;;;;0.47;0.30;;;16.00;88.00;;;;;;4973508;28;20030;-63
2023/09/22 09:34:48;;;;;;;0.40;0.20;;;16.00;88.20;;;;;;4972147;28;20157;-63
2023/09/22 09:37:14;;;;;;;1.00;0.30;;;15.90;88.10;;;;;;4974566;28;20055;-63
2023/09/22 09:39:52;;;;;;;0.57;0.50;;;15.90;88.50;;;;;;4972320;28;20023;-64
2023/09/22 09:42:21;;;;;;;0.65;0.30;;;15.80;88.80;;;;;;4974432;28;20118;-63
2023/09/22 09:44:54;;;;;;;0.50;0.40;;;15.80;88.70;;;;;;4971150;28;20031;-64
2023/09/22 09:47:30;;;;;;;0.43;0.40;;;15.80;88.80;;;;;;4973452;28;20118;-63
2023/09/22 09:49:56;;;;;;;0.55;0.38;;;15.80;88.80;;;;;;4972843;28;20043;-63
2023/09/22 09:52:37;;;;;;;1.17;0.50;;;15.80;88.70;;;;;;4972934;28;20047;-63
2023/09/22 09:55:14;;;;;;;0.70;0.52;;;15.80;89.70;;;;;;4974830;28;20046;-63
2023/09/22 09:57:43;;;;;;;2.08;0.50;;;15.80;89.80;;;;;;4963166;28;20514;-62
2023/09/22 10:00:15;;;;;;;0.57;0.40;;;15.80;88.80;;;;;;4954798;28;20431;-63
2023/09/22 10:02:44;;;;;;;0.70;0.50;;;15.70;88.70;;;;;;4970575;28;20042;-63
2023/09/22 10:05:18;;;;;;;1.50;0.30;;;15.80;88.80;;;;;;4973270;28;20065;-62
2023/09/22 10:07:46;;;;;;;0.57;0.35;;;15.80;88.90;;;;;;4975184;28;20077;-63
2023/09/22 10:10:13;;;;;;;0.60;0.30;;;15.70;88.70;;;;;;4975802;28;20560;-62
2023/09/22 10:12:40;;;;;;;0.43;0.20;;;15.70;88.70;;;;;;4973339;28;20628;-63
2023/09/22 10:15:07;;;;;;;1.02;0.50;;;15.70;88.80;;;;;;4973544;28;20046;-62
2023/09/22 10:17:32;;;;;;;0.50;0.40;;;15.60;88.70;;;;;;4973609;28;20054;-63
2023/09/22 10:20:10;;;;;;;0.70;0.50;;;15.60;88.80;;;;;;4973710;28;20026;-62
2023/09/22 10:22:37;;;;;;;1.27;0.40;;;15.60;89.10;;;;;;4971524;28;20038;-63
2023/09/22 10:25:14;;;;;;;2.05;0.50;;;15.60;89.00;;;;;;4974433;28;20027;-63
2023/09/22 10:27:59;;;;;;;1.00;0.40;;;15.60;89.30;;;;;;4977093;28;20042;-63
2023/09/22 10:30:45;;;;;;;0.55;0.30;;;15.50;89.80;;;;;;4973874;28;20141;-63
2023/09/22 10:33:23;;;;;;;0.88;0.38;;;15.50;89.50;;;;;;4966567;28;20081;-63
2023/09/22 10:35:49;;;;;;;0.17;0.10;;;15.50;89.30;;;;;;4955560;28;20059;-63
2023/09/22 10:38:15;;;;;;;0.30;0.20;;;15.50;88.90;;;;;;4964203;28;20039;-63
2023/09/22 10:40:59;;;;;;;0.80;0.30;;;15.50;89.00;;;;;;4972868;28;20113;-63
2023/09/22 10:43:32;;;;;;;0.75;0.30;;;15.50;89.50;;;;;;4971967;28;20042;-63
2023/09/22 10:45:59;;;;;;;0.88;0.30;;;15.40;89.20;;;;;;4972436;28;20121;-63
2023/09/22 10:48:30;;;;;;;0.52;0.40;;;15.40;89.20;;;;;;4971765;28;20043;-63
2023/09/22 10:50:56;;;;;;;1.75;0.47;;;15.40;89.40;;;;;;4972221;28;20038;-63
2023/09/22 10:53:22;;;;;;;0.70;0.40;;;15.40;89.40;;;;;;4986969;23;20050;-63
2023/09/22 10:55:48;;;;;;;0.47;0.38;;;15.40;89.50;;;;;;4976075;28;20109;-63
2023/09/22 10:58:19;;;;;;;0.85;0.40;;;15.40;89.50;;;;;;4973706;28;20074;-63
2023/09/22 11:00:59;;;;;;;0.63;0.43;;;15.40;89.70;;;;;;4974393;28;20034;-63
2023/09/22 11:03:25;;;;;;;1.60;0.38;;;15.50;89.70;;;;;;4973229;28;20034;-63
2023/09/22 11:05:58;;;;;;;0.45;0.30;;;15.50;89.10;;;;;;4972989;28;20039;-62
2023/09/22 11:08:24;;;;;;;0.40;0.40;;;15.50;89.10;;;;;;4971050;28;20071;-62
2023/09/22 11:10:56;;;;;;;1.10;0.30;;;15.50;89.00;;;;;;4969822;28;20142;-62
2023/09/22 11:13:22;;;;;;;1.55;0.50;;;15.50;88.50;;;;;;4970889;28;20131;-63
2023/09/22 11:15:49;;;;;;;0.32;0.28;;;15.40;88.10;;;;;;4969394;28;20059;-63
2023/09/22 11:18:20;;;;;;;1.33;0.20;;;15.40;87.80;;;;;;4970270;28;20121;-62
2023/09/22 11:20:46;;;;;;;0.40;0.22;;;15.40;87.40;;;;;;4968361;28;20036;-62
2023/09/22 11:23:11;;;;;;;1.13;0.22;;;15.40;87.10;;;;;;4972928;28;20030;-63
2023/09/22 11:25:37;;;;;;;0.50;0.20;;;15.30;86.70;;;;;;4974293;28;20569;-63
2023/09/22 11:28:04;;;;;;;0.80;0.20;;;15.30;86.60;;;;;;4971029;28;20087;-63
2023/09/22 11:30:33;;;;;;;1.67;0.73;;;15.30;86.40;;;;;;4970469;28;20150;-63
2023/09/22 11:32:59;;;;;;;1.83;0.35;;;15.20;86.50;;;;;;4974301;28;20050;-63
2023/09/22 11:35:33;;;;;;;0.93;0.40;;;15.20;86.70;;;;;;4974199;28;20031;-62
2023/09/22 11:38:01;;;;;;;0.30;0.20;;;15.20;86.70;;;;;;4970883;28;20047;-62
2023/09/22 11:40:37;;;;;;;0.20;0.20;;;15.20;86.70;;;;;;4971549;28;20510;-63
2023/09/22 11:43:04;;;;;;;0.68;0.28;;;15.20;86.90;;;;;;4974071;28;20034;-63
2023/09/22 11:45:29;;;;;;;0.63;0.20;;;15.10;87.00;;;;;;4970734;28;20038;-62
2023/09/22 11:48:05;;;;;;;1.10;0.30;;;15.10;86.90;;;;;;4971965;28;20069;-63
2023/09/22 11:50:31;;;;;;;1.63;0.32;;;15.10;87.00;;;;;;4973579;28;20039;-62
2023/09/22 11:53:16;;;;;;;0.32;0.20;;;15.10;86.90;;;;;;4973927;28;20041;-63
2023/09/22 11:55:41;;;;;;;1.85;0.20;;;15.10;86.70;;;;;;4971578;28;20043;-62
2023/09/22 11:58:08;;;;;;;0.52;0.30;;;15.20;86.80;;;;;;4972968;28;20457;-63
2023/09/22 12:00:33;;;;;;;0.40;0.30;;;15.10;86.90;;;;;;4977074;28;20046;-62
2023/09/22 12:02:59;;;;;;;1.25;0.10;;;15.10;86.80;;;;;;4979776;28;20057;-61
2023/09/22 12:05:25;;;;;;;0.32;0.20;;;15.10;86.70;;;;;;4980161;28;20468;-61
2023/09/22 12:07:50;;;;;;;0.22;0.20;;;15.10;86.90;;;;;;4979797;28;20045;-62
2023/09/22 12:10:16;;;;;;;0.25;0.20;;;15.20;87.10;;;;;;4980589;28;20053;-59
2023/09/22 12:12:42;;;;;;;0.40;0.20;;;15.20;86.90;;;;;;4976678;28;20109;-62
2023/09/22 12:15:08;;;;;;;0.45;0.20;;;15.20;86.80;;;;;;4979970;28;20494;-62
2023/09/22 12:17:33;;;;;;;1.67;0.20;;;15.20;86.60;;;;;;4980120;28;20184;-62
2023/09/22 12:19:59;;;;;;;0.20;0.10;;;15.20;86.50;;;;;;4980458;28;20117;-62
2023/09/22 12:22:25;;;;;;;0.30;0.20;;;15.20;86.50;;;;;;4980592;28;20460;-63
2023/09/22 12:24:50;;;;;;;0.17;0.10;;;15.20;86.40;;;;;;4980594;28;20034;-62
2023/09/22 12:27:16;;;;;;;1.15;0.20;;;15.20;86.30;;;;;;4979200;28;20082;-62
2023/09/22 12:29:43;;;;;;;0.70;0.15;;;15.30;86.00;;;;;;4980972;28;20043;-62
2023/09/22 12:32:10;;;;;;;0.55;0.20;;;15.30;85.90;;;;;;4980244;28;20500;-61
2023/09/22 12:34:35;;;;;;;0.10;0.10;;;15.20;85.90;;;;;;4983806;28;20030;-61
2023/09/22 12:37:01;;;;;;;0.20;0.20;;;15.30;85.90;;;;;;4981872;28;20038;-62
2023/09/22 12:39:27;;;;;;;0.25;0.20;;;15.30;86.00;;;;;;4976383;28;20047;-62
2023/09/22 12:41:53;;;;;;;0.20;0.15;;;15.30;86.00;;;;;;4981801;28;20069;-62
2023/09/22 12:44:19;;;;;;;0.57;0.30;;;15.30;85.90;;;;;;4979117;28;20074;-62
2023/09/22 12:46:44;;;;;;;0.17;0.10;;;15.40;86.00;;;;;;4979482;28;20046;-61
2023/09/22 12:49:10;;;;;;;0.98;0.20;;;15.40;85.90;;;;;;4980916;28;20034;-62